Aérodrome :







RETROUVEZ-NOUS SUR...

 
LOGIN :

S'inscrire | Disclaimer

   EN    FR    IT 

 









Légende :    VFR   VFR Marginal   IFR   IFR Intensif   IFR Très Intensif
Visi : 
Plafond : 
>= 8 km
>= 3000ft
5 à 8 km
1000 à 3000 ft
1500m à 5 km
500 à 1000 ft
800 à 1500m
200 à 500 ft
< 800m
< 200 ft
Symboles :   Orages  Brouillard  Fortes neiges  Fortes précipitations  Vent > 20 kt






- Altitude de l'aérodrome : 38 ft
- Code IATA : YMH


CYMH - Mary's Harbour

DERNIER METAR :
  • 262000Z AUTO 29008KT 9SM CLR 12/M01 A2990 RMK SLP128

METARs EXPIRÉS :
  • 261900Z AUTO 30009G21KT 250V320 9SM CLR 12/M02 A2989 RMK SLP123

TAF TAF CYMH
Valide du 26 à 20h jusqu'au 27 à 03h UTC


261939Z 2620/2703 30010G20KT P6SM SKC
BECMG 2622/2624 25005KT
FM270000 25005KT P6SM BKN180
BECMG 2700/2702 21005KT OVC100 RMK FCST BASED ON AUTO OBS. NXT FCST WILL BE ISSUED AT 270845Z
FIR CZQX / Amérique du Nord



MET'MAP, la Météo Aéronautique d'un coup d'oeil ! - Copyright ORBIFLY Décembre 2007 - Disclaimer

ORBIFLY MET'MAP TEAM :

Programmation & Développement : Alexandra Zaïnal
Sur une idée originale de : Baudouin d'Aumeries
Assistance à la programmation : Marc-Olivier Méhu
Soutien technique & logistique : Manuel Goepfert

Contact : metmap@orbifly.com




SOURCES & CREDITS :

   NOAA